map of TBP home
TBP - Airport
Location
City:  Tumbes, Tumbes, Perú
Name:Capitán FAP Pedro Canga Rodriguez
ICAO:SPME
IATA:TBP

Details
Type:Airport (Aerodrome, Airfield)
Use:Public/Civil
Latitude:3°33'08"S (-3.552263)
Longitude:80°22'52"W (-80.381068)
Elevation:115 ft (35 m)
Variation:1.67°W (WMM2015 magnetic declination)
-0.16° annual change
Runways:1
Longest:8202 × 148 ft (2500 × 45 m), paved

Time
Time Zone:UTC-5
Local Time:

Weather
METAR:SPME 190300Z 28006KT 250V330 9999 BKN012 24/20 Q1011 RMK BIRD HAZARD RWY 32/14 PP000
TAF:SPME 182300Z 1900/1924 27003KT 9999 OVC011 TX28/1919Z TN22/1911Z BECNG 1913/1915 34008KT FEW013 BKN020

Related Locations
Nearby:
Farthest:KNO: 12398 mi / 19953 km
Medan (Kualanamu) [Kualanamu Intl (Kuala Namu Intl)], SU, ID

Find:

   beyond  
but within

Other Information
Maps:
NOTAMs:
Links:
Sources:

  
  • flag of Perú
  • flag of Tumbes
  

Sectional Chart

Flight Planning
at skyvector.com

Satellite Image

Google Maps Satellite view

 

Copyright © 2004-2018 Karl L. Swartz. All rights reserved.
The Great Circle Mapper name and logo are trademarks of the Great Circle Mapper.
All other trademarks mentioned herein belong to their respective owners.
Please see credits for attibutions and further copyright information.

  Follow gcmap on Facebook Follow gcmap on Twitter Follow gcmap on Google+ GCmap on LinkedIn

hCard Microformat

Geo Microformat